DLH117 EDDH-EGLL
Flight info
| Callsign | DLH117 |
|---|---|
| Flight time | 1h 11m |
| Altitude | 40000 |
| Route | WSN5G/33 WSN N125 ITMIZ DCT ABNED L980 LOGAN |
| Aircraft | A346/H-SDE2E3FGHIJ3J4J5M1RWXY/LB1D1 |
Departure
| Time | 2026-05-07 21:11 |
|---|---|
| Airport | Hamburg Helmut Schmidt Airport (EDDH) |
Arrival
| Time | 2026-05-07 22:22 |
|---|---|
| Airport | London Heathrow Airport (EGLL) |
| Time | Latitude | Longitude | Altitude | Speed | Heading |
|---|---|---|---|---|---|
| 2026-05-07 20:51 | 53.62929 | 10.00271 | 54 ft | 0 kts | 111° |
| 2026-05-07 21:03 | 53.62933 | 10.00252 | 54 ft | 0 kts | 111° |
| 2026-05-07 21:04 | 53.62943 | 10.00211 | 46 ft | 0 kts | 111° |
| 2026-05-07 21:04 | 53.62954 | 10.00183 | 46 ft | 0 kts | 144° |
| 2026-05-07 21:04 | 53.62971 | 10.00176 | 48 ft | 0 kts | 184° |
| 2026-05-07 21:04 | 53.62985 | 10.00184 | 46 ft | 0 kts | 212° |
| 2026-05-07 21:07 | 53.62984 | 10.00183 | 46 ft | 1 kts | 212° |
| 2026-05-07 21:07 | 53.62964 | 10.00160 | 46 ft | 6 kts | 214° |
| 2026-05-07 21:08 | 53.62931 | 10.00121 | 52 ft | 0 kts | 214° |
| 2026-05-07 21:08 | 53.62902 | 10.00085 | 48 ft | 5 kts | 218° |
| 2026-05-07 21:08 | 53.62867 | 10.00040 | 46 ft | 7 kts | 218° |
| 2026-05-07 21:08 | 53.62845 | 9.99987 | 55 ft | 0 kts | 248° |
| 2026-05-07 21:09 | 53.62845 | 9.99984 | 49 ft | 1 kts | 248° |
| 2026-05-07 21:09 | 53.62835 | 9.99944 | 49 ft | 6 kts | 248° |
| 2026-05-07 21:09 | 53.62820 | 9.99832 | 51 ft | 12 kts | 281° |
| 2026-05-07 21:09 | 53.62857 | 9.99756 | 51 ft | 0 kts | 328° |
| 2026-05-07 21:10 | 53.62910 | 9.99706 | 49 ft | 37 kts | 331° |
| 2026-05-07 21:10 | 53.63386 | 9.99293 | 54 ft | 114 kts | 333° |
| 2026-05-07 21:10 | 53.64295 | 9.98519 | 56 ft | 175 kts | 335° |
| 2026-05-07 21:10 | 53.65481 | 9.97524 | 408 ft | 193 kts | 336° |
| 2026-05-07 21:11 | 53.66730 | 9.96454 | 760 ft | 215 kts | 334° |
| 2026-05-07 21:11 | 53.68138 | 9.95202 | 902 ft | 239 kts | 334° |
| 2026-05-07 21:11 | 53.70897 | 9.91817 | 1223 ft | 263 kts | 299° |
| 2026-05-07 21:12 | 53.71324 | 9.88817 | 2005 ft | 266 kts | 263° |
| 2026-05-07 21:12 | 53.70863 | 9.85823 | 2894 ft | 264 kts | 249° |
| 2026-05-07 21:12 | 53.70241 | 9.82889 | 3732 ft | 267 kts | 249° |
| 2026-05-07 21:12 | 53.69617 | 9.79915 | 4472 ft | 270 kts | 250° |
| 2026-05-07 21:13 | 53.69002 | 9.76904 | 4898 ft | 272 kts | 250° |
| 2026-05-07 21:13 | 53.68398 | 9.73873 | 4988 ft | 273 kts | 251° |
| 2026-05-07 21:13 | 53.67800 | 9.70839 | 4993 ft | 272 kts | 251° |
| 2026-05-07 21:13 | 53.67196 | 9.67768 | 5161 ft | 280 kts | 251° |
| 2026-05-07 21:14 | 53.66576 | 9.64634 | 6011 ft | 279 kts | 251° |
| 2026-05-07 21:14 | 53.65961 | 9.61529 | 6906 ft | 279 kts | 251° |
| 2026-05-07 21:14 | 53.65269 | 9.58504 | 7616 ft | 282 kts | 244° |
| 2026-05-07 21:14 | 53.64291 | 9.55625 | 8324 ft | 284 kts | 235° |
| 2026-05-07 21:15 | 53.63145 | 9.52888 | 9038 ft | 286 kts | 233° |
| 2026-05-07 21:15 | 53.61966 | 9.50172 | 9758 ft | 287 kts | 233° |
| 2026-05-07 21:15 | 53.60775 | 9.47436 | 10395 ft | 293 kts | 233° |
| 2026-05-07 21:15 | 53.59546 | 9.44592 | 10755 ft | 308 kts | 234° |
| 2026-05-07 21:16 | 53.58253 | 9.41587 | 11058 ft | 325 kts | 234° |
| 2026-05-07 21:16 | 53.56891 | 9.38424 | 11371 ft | 342 kts | 234° |
| 2026-05-07 21:16 | 53.55461 | 9.35105 | 11646 ft | 358 kts | 234° |
| 2026-05-07 21:16 | 53.53961 | 9.31632 | 11981 ft | 373 kts | 234° |
| 2026-05-07 21:17 | 53.52418 | 9.28059 | 12573 ft | 379 kts | 234° |
| 2026-05-07 21:17 | 53.50859 | 9.24457 | 13353 ft | 382 kts | 234° |
| 2026-05-07 21:17 | 53.49279 | 9.20813 | 14085 ft | 385 kts | 234° |
| 2026-05-07 21:17 | 53.47704 | 9.17177 | 14378 ft | 383 kts | 234° |
| 2026-05-07 21:18 | 53.46132 | 9.13557 | 15085 ft | 387 kts | 233° |
| 2026-05-07 21:18 | 53.44501 | 9.09820 | 15278 ft | 402 kts | 234° |
| 2026-05-07 21:18 | 53.42855 | 9.06047 | 16122 ft | 398 kts | 234° |
| 2026-05-07 21:18 | 53.41222 | 9.02300 | 16986 ft | 396 kts | 234° |
| 2026-05-07 21:19 | 53.39588 | 8.98559 | 17637 ft | 400 kts | 234° |
| 2026-05-07 21:19 | 53.37929 | 8.94769 | 18202 ft | 405 kts | 234° |
| 2026-05-07 21:19 | 53.36282 | 8.90919 | 18766 ft | 408 kts | 237° |
| 2026-05-07 21:19 | 53.34832 | 8.86890 | 19334 ft | 410 kts | 242° |
| 2026-05-07 21:20 | 53.33585 | 8.82554 | 19860 ft | 414 kts | 247° |
| 2026-05-07 21:20 | 53.32514 | 8.78066 | 20412 ft | 417 kts | 249° |
| 2026-05-07 21:20 | 53.31464 | 8.73529 | 20980 ft | 420 kts | 249° |
| 2026-05-07 21:20 | 53.30408 | 8.68952 | 21505 ft | 423 kts | 249° |
| 2026-05-07 21:21 | 53.29340 | 8.64334 | 22023 ft | 427 kts | 249° |
| 2026-05-07 21:21 | 53.28262 | 8.59691 | 22570 ft | 430 kts | 249° |
| 2026-05-07 21:21 | 53.27169 | 8.55002 | 23091 ft | 433 kts | 249° |
| 2026-05-07 21:21 | 53.26069 | 8.50296 | 23615 ft | 436 kts | 248° |
| 2026-05-07 21:22 | 53.24958 | 8.45556 | 24058 ft | 439 kts | 248° |
| 2026-05-07 21:22 | 53.23838 | 8.40792 | 24474 ft | 442 kts | 248° |
| 2026-05-07 21:22 | 53.22709 | 8.36005 | 24906 ft | 444 kts | 248° |
| 2026-05-07 21:22 | 53.21568 | 8.31173 | 25355 ft | 447 kts | 248° |
| 2026-05-07 21:23 | 53.20421 | 8.26328 | 25781 ft | 450 kts | 248° |
| 2026-05-07 21:23 | 53.19264 | 8.21454 | 26212 ft | 452 kts | 248° |
| 2026-05-07 21:23 | 53.18098 | 8.16554 | 26647 ft | 455 kts | 248° |
| 2026-05-07 21:23 | 53.16926 | 8.11635 | 27087 ft | 457 kts | 248° |
| 2026-05-07 21:24 | 53.15743 | 8.06687 | 27503 ft | 460 kts | 248° |
| 2026-05-07 21:24 | 53.14552 | 8.01713 | 27898 ft | 463 kts | 248° |
| 2026-05-07 21:24 | 53.13353 | 7.96716 | 28329 ft | 465 kts | 248° |
| 2026-05-07 21:24 | 53.12145 | 7.91696 | 28732 ft | 468 kts | 248° |
| 2026-05-07 21:25 | 53.10926 | 7.86642 | 29126 ft | 471 kts | 248° |
| 2026-05-07 21:25 | 53.09702 | 7.81578 | 29646 ft | 470 kts | 248° |
| 2026-05-07 21:25 | 53.08483 | 7.76546 | 30284 ft | 468 kts | 248° |
| 2026-05-07 21:25 | 53.07267 | 7.71541 | 30800 ft | 466 kts | 248° |
| 2026-05-07 21:26 | 53.06067 | 7.66605 | 31284 ft | 464 kts | 248° |
| 2026-05-07 21:26 | 53.04851 | 7.61621 | 31742 ft | 464 kts | 248° |
| 2026-05-07 21:26 | 53.03636 | 7.56650 | 32165 ft | 464 kts | 248° |
| 2026-05-07 21:26 | 53.02417 | 7.51675 | 32601 ft | 464 kts | 248° |
| 2026-05-07 21:27 | 53.01197 | 7.46706 | 33056 ft | 463 kts | 248° |
| 2026-05-07 21:27 | 52.99978 | 7.41753 | 33574 ft | 461 kts | 248° |
| 2026-05-07 21:27 | 52.98765 | 7.36836 | 34065 ft | 459 kts | 247° |
| 2026-05-07 21:27 | 52.97551 | 7.31929 | 34450 ft | 458 kts | 247° |
| 2026-05-07 21:28 | 52.96338 | 7.27033 | 34789 ft | 458 kts | 247° |
| 2026-05-07 21:28 | 52.95120 | 7.22132 | 35097 ft | 459 kts | 247° |
| 2026-05-07 21:28 | 52.94315 | 7.18894 | 35317 ft | 459 kts | 247° |
| 2026-05-07 21:28 | 52.93094 | 7.13998 | 35639 ft | 459 kts | 247° |
| 2026-05-07 21:29 | 52.91872 | 7.09109 | 35952 ft | 459 kts | 247° |
| 2026-05-07 21:29 | 52.90647 | 7.04216 | 36237 ft | 459 kts | 247° |
| 2026-05-07 21:29 | 52.89420 | 6.99326 | 36510 ft | 459 kts | 247° |
| 2026-05-07 21:29 | 52.88187 | 6.94424 | 36789 ft | 460 kts | 247° |
| 2026-05-07 21:30 | 52.86954 | 6.89532 | 37057 ft | 460 kts | 247° |
| 2026-05-07 21:30 | 52.85719 | 6.84642 | 37098 ft | 460 kts | 247° |
| 2026-05-07 21:30 | 52.83242 | 6.74871 | 37109 ft | 462 kts | 247° |
| 2026-05-07 21:31 | 52.80711 | 6.64929 | 37103 ft | 473 kts | 247° |
| 2026-05-07 21:31 | 52.78137 | 6.54863 | 37108 ft | 476 kts | 247° |
| 2026-05-07 21:32 | 52.75567 | 6.44854 | 37100 ft | 476 kts | 246° |
| 2026-05-07 21:32 | 52.72968 | 6.34780 | 37098 ft | 476 kts | 246° |
| 2026-05-07 21:33 | 52.70362 | 6.24725 | 37101 ft | 476 kts | 246° |
| 2026-05-07 21:33 | 52.67749 | 6.14687 | 37093 ft | 476 kts | 246° |
| 2026-05-07 21:34 | 52.65125 | 6.04649 | 37097 ft | 476 kts | 246° |
| 2026-05-07 21:34 | 52.62494 | 5.94634 | 37095 ft | 476 kts | 246° |
| 2026-05-07 21:35 | 52.59856 | 5.84633 | 37095 ft | 475 kts | 246° |
| 2026-05-07 21:35 | 52.57212 | 5.74653 | 37094 ft | 475 kts | 246° |
| 2026-05-07 21:36 | 52.54577 | 5.64750 | 37098 ft | 475 kts | 246° |
| 2026-05-07 21:36 | 52.51917 | 5.54794 | 37116 ft | 475 kts | 246° |
| 2026-05-07 21:37 | 52.49248 | 5.44852 | 37120 ft | 475 kts | 246° |
| 2026-05-07 21:37 | 52.46569 | 5.34913 | 37117 ft | 475 kts | 246° |
| 2026-05-07 21:38 | 52.43882 | 5.24990 | 37112 ft | 475 kts | 246° |
| 2026-05-07 21:38 | 52.41190 | 5.15087 | 37106 ft | 475 kts | 246° |
| 2026-05-07 21:39 | 52.38489 | 5.05202 | 37107 ft | 474 kts | 246° |
| 2026-05-07 21:39 | 52.35789 | 4.95354 | 37085 ft | 474 kts | 245° |
| 2026-05-07 21:40 | 52.33093 | 4.85558 | 37112 ft | 470 kts | 245° |
| 2026-05-07 21:40 | 52.30415 | 4.75879 | 37116 ft | 470 kts | 245° |
| 2026-05-07 21:41 | 52.27709 | 4.66139 | 37097 ft | 470 kts | 245° |
| 2026-05-07 21:41 | 52.24995 | 4.56407 | 37097 ft | 470 kts | 245° |
| 2026-05-07 21:42 | 52.22273 | 4.46686 | 37102 ft | 470 kts | 245° |
| 2026-05-07 21:42 | 52.19546 | 4.36991 | 37098 ft | 469 kts | 245° |
| 2026-05-07 21:43 | 52.16825 | 4.27357 | 37095 ft | 469 kts | 245° |
| 2026-05-07 21:43 | 52.14087 | 4.17697 | 37110 ft | 469 kts | 245° |
| 2026-05-07 21:44 | 52.11341 | 4.08051 | 37108 ft | 469 kts | 245° |
| 2026-05-07 21:44 | 52.08588 | 3.98419 | 37097 ft | 469 kts | 245° |
| 2026-05-07 21:45 | 52.05825 | 3.88795 | 37105 ft | 468 kts | 245° |
| 2026-05-07 21:45 | 52.03061 | 3.79204 | 37103 ft | 468 kts | 245° |
| 2026-05-07 21:46 | 52.00291 | 3.69628 | 37102 ft | 468 kts | 245° |
| 2026-05-07 21:46 | 51.97512 | 3.60066 | 37108 ft | 467 kts | 245° |
| 2026-05-07 21:47 | 51.94728 | 3.50520 | 37108 ft | 467 kts | 245° |
| 2026-05-07 21:47 | 51.91959 | 3.41057 | 37112 ft | 467 kts | 245° |
| 2026-05-07 21:48 | 51.89163 | 3.31546 | 37101 ft | 466 kts | 244° |
| 2026-05-07 21:48 | 51.86416 | 3.22022 | 37100 ft | 466 kts | 248° |
| 2026-05-07 21:49 | 51.84664 | 3.11907 | 37107 ft | 467 kts | 260° |
| 2026-05-07 21:49 | 51.83946 | 3.01449 | 37103 ft | 467 kts | 264° |
| 2026-05-07 21:50 | 51.83328 | 2.90981 | 37098 ft | 465 kts | 264° |
| 2026-05-07 21:50 | 51.83019 | 2.85801 | 36741 ft | 460 kts | 264° |
| 2026-05-07 21:50 | 51.82710 | 2.80711 | 36005 ft | 462 kts | 264° |
| 2026-05-07 21:51 | 51.82391 | 2.75529 | 35244 ft | 463 kts | 264° |
| 2026-05-07 21:51 | 51.82069 | 2.70341 | 34605 ft | 462 kts | 264° |
| 2026-05-07 21:51 | 51.81743 | 2.65112 | 33959 ft | 460 kts | 264° |
| 2026-05-07 21:51 | 51.81424 | 2.60045 | 33206 ft | 459 kts | 264° |
| 2026-05-07 21:52 | 51.81098 | 2.54908 | 32387 ft | 459 kts | 264° |
| 2026-05-07 21:52 | 51.80770 | 2.49754 | 31511 ft | 461 kts | 264° |
| 2026-05-07 21:52 | 51.80437 | 2.44580 | 30668 ft | 463 kts | 264° |
| 2026-05-07 21:52 | 51.80102 | 2.39400 | 29730 ft | 465 kts | 264° |
| 2026-05-07 21:53 | 51.79762 | 2.34170 | 28699 ft | 467 kts | 263° |
| 2026-05-07 21:53 | 51.79420 | 2.28958 | 28027 ft | 463 kts | 263° |
| 2026-05-07 21:53 | 51.79079 | 2.23803 | 27470 ft | 458 kts | 263° |
| 2026-05-07 21:53 | 51.78740 | 2.18706 | 26822 ft | 454 kts | 263° |
| 2026-05-07 21:54 | 51.78401 | 2.13625 | 26166 ft | 452 kts | 263° |
| 2026-05-07 21:54 | 51.78061 | 2.08589 | 25547 ft | 449 kts | 263° |
| 2026-05-07 21:54 | 51.77721 | 2.03590 | 25179 ft | 446 kts | 263° |
| 2026-05-07 21:54 | 51.77380 | 1.98601 | 25114 ft | 447 kts | 263° |
| 2026-05-07 21:55 | 51.77041 | 1.93653 | 25107 ft | 438 kts | 263° |
| 2026-05-07 21:55 | 51.76705 | 1.88771 | 25107 ft | 437 kts | 263° |
| 2026-05-07 21:55 | 51.76366 | 1.83892 | 25104 ft | 437 kts | 263° |
| 2026-05-07 21:55 | 51.76024 | 1.79010 | 25106 ft | 437 kts | 263° |
| 2026-05-07 21:56 | 51.75684 | 1.74193 | 25103 ft | 437 kts | 263° |
| 2026-05-07 21:56 | 51.75339 | 1.69317 | 25102 ft | 437 kts | 263° |
| 2026-05-07 21:56 | 51.74985 | 1.64374 | 25102 ft | 437 kts | 263° |
| 2026-05-07 21:56 | 51.74645 | 1.59565 | 25105 ft | 437 kts | 263° |
| 2026-05-07 21:57 | 51.74327 | 1.54681 | 25103 ft | 437 kts | 263° |
| 2026-05-07 21:57 | 51.74019 | 1.49825 | 24996 ft | 431 kts | 263° |
| 2026-05-07 21:57 | 51.73715 | 1.45032 | 24452 ft | 428 kts | 263° |
| 2026-05-07 21:57 | 51.73408 | 1.40240 | 23826 ft | 428 kts | 263° |
| 2026-05-07 21:58 | 51.73099 | 1.35470 | 23220 ft | 426 kts | 263° |
| 2026-05-07 21:58 | 51.72789 | 1.30727 | 22631 ft | 423 kts | 263° |
| 2026-05-07 21:58 | 51.72479 | 1.26027 | 22051 ft | 419 kts | 263° |
| 2026-05-07 21:58 | 51.72169 | 1.21354 | 21482 ft | 416 kts | 263° |
| 2026-05-07 21:59 | 51.71861 | 1.16727 | 20924 ft | 413 kts | 263° |
| 2026-05-07 21:59 | 51.71552 | 1.12127 | 20372 ft | 410 kts | 263° |
| 2026-05-07 21:59 | 51.71244 | 1.07559 | 19830 ft | 407 kts | 263° |
| 2026-05-07 21:59 | 51.70935 | 1.03025 | 19304 ft | 405 kts | 263° |
| 2026-05-07 22:00 | 51.70626 | 0.98522 | 18766 ft | 402 kts | 263° |
| 2026-05-07 22:00 | 51.70320 | 0.94052 | 18246 ft | 399 kts | 262° |
| 2026-05-07 22:00 | 51.70012 | 0.89605 | 17668 ft | 396 kts | 262° |
| 2026-05-07 22:00 | 51.69709 | 0.85255 | 17123 ft | 394 kts | 262° |
| 2026-05-07 22:01 | 51.69397 | 0.80798 | 16563 ft | 391 kts | 262° |
| 2026-05-07 22:01 | 51.69091 | 0.76453 | 16021 ft | 389 kts | 262° |
| 2026-05-07 22:01 | 51.68789 | 0.72193 | 15326 ft | 385 kts | 262° |
| 2026-05-07 22:01 | 51.68484 | 0.67903 | 14363 ft | 384 kts | 262° |
| 2026-05-07 22:02 | 51.68182 | 0.63676 | 13815 ft | 374 kts | 262° |
| 2026-05-07 22:02 | 51.67889 | 0.59594 | 13220 ft | 359 kts | 262° |
| 2026-05-07 22:02 | 51.67607 | 0.55682 | 12831 ft | 340 kts | 262° |
| 2026-05-07 22:02 | 51.67339 | 0.51990 | 12494 ft | 323 kts | 262° |
| 2026-05-07 22:03 | 51.67084 | 0.48479 | 12183 ft | 307 kts | 262° |
| 2026-05-07 22:03 | 51.66840 | 0.45151 | 11893 ft | 292 kts | 262° |
| 2026-05-07 22:03 | 51.66604 | 0.41946 | 11440 ft | 284 kts | 262° |
| 2026-05-07 22:03 | 51.66371 | 0.38802 | 10869 ft | 281 kts | 262° |
| 2026-05-07 22:04 | 51.66139 | 0.35689 | 10335 ft | 278 kts | 263° |
| 2026-05-07 22:04 | 51.65908 | 0.32597 | 9760 ft | 276 kts | 263° |
| 2026-05-07 22:04 | 51.65681 | 0.29528 | 9149 ft | 274 kts | 263° |
| 2026-05-07 22:04 | 51.65454 | 0.26470 | 8525 ft | 274 kts | 263° |
| 2026-05-07 22:05 | 51.65228 | 0.23433 | 7969 ft | 271 kts | 263° |
| 2026-05-07 22:05 | 51.65000 | 0.20425 | 7413 ft | 270 kts | 263° |
| 2026-05-07 22:05 | 51.64775 | 0.17430 | 7092 ft | 269 kts | 262° |
| 2026-05-07 22:05 | 51.64551 | 0.14426 | 7006 ft | 271 kts | 263° |
| 2026-05-07 22:06 | 51.64372 | 0.11400 | 7022 ft | 272 kts | 264° |
| 2026-05-07 22:06 | 51.64210 | 0.08360 | 7006 ft | 272 kts | 264° |
| 2026-05-07 22:06 | 51.64049 | 0.05322 | 6997 ft | 272 kts | 264° |
| 2026-05-07 22:06 | 51.63884 | 0.02279 | 6999 ft | 272 kts | 264° |
| 2026-05-07 22:07 | 51.63719 | -0.00759 | 6974 ft | 272 kts | 264° |
| 2026-05-07 22:07 | 51.63548 | -0.03793 | 6970 ft | 272 kts | 264° |
| 2026-05-07 22:07 | 51.63380 | -0.06808 | 6971 ft | 266 kts | 264° |
| 2026-05-07 22:07 | 51.63218 | -0.09702 | 6963 ft | 252 kts | 264° |
| 2026-05-07 22:08 | 51.63064 | -0.12438 | 6957 ft | 238 kts | 264° |
| 2026-05-07 22:08 | 51.62918 | -0.15013 | 6952 ft | 224 kts | 264° |
| 2026-05-07 22:08 | 51.62779 | -0.17460 | 6994 ft | 218 kts | 264° |
| 2026-05-07 22:08 | 51.62643 | -0.19849 | 6989 ft | 207 kts | 264° |
| 2026-05-07 22:09 | 51.62514 | -0.22089 | 6957 ft | 197 kts | 264° |
| 2026-05-07 22:09 | 51.62389 | -0.24276 | 6962 ft | 195 kts | 264° |
| 2026-05-07 22:09 | 51.62265 | -0.26415 | 6754 ft | 191 kts | 264° |
| 2026-05-07 22:09 | 51.62141 | -0.28563 | 6345 ft | 194 kts | 264° |
| 2026-05-07 22:10 | 51.62015 | -0.30730 | 6005 ft | 194 kts | 264° |
| 2026-05-07 22:10 | 51.61890 | -0.32872 | 5989 ft | 196 kts | 264° |
| 2026-05-07 22:10 | 51.61762 | -0.35067 | 5980 ft | 197 kts | 264° |
| 2026-05-07 22:10 | 51.61632 | -0.37270 | 5976 ft | 197 kts | 264° |
| 2026-05-07 22:11 | 51.61501 | -0.39474 | 5978 ft | 197 kts | 264° |
| 2026-05-07 22:11 | 51.61371 | -0.41678 | 5970 ft | 197 kts | 264° |
| 2026-05-07 22:11 | 51.61239 | -0.43877 | 5970 ft | 197 kts | 264° |
| 2026-05-07 22:11 | 51.61109 | -0.46072 | 5970 ft | 197 kts | 264° |
| 2026-05-07 22:12 | 51.60977 | -0.48271 | 5972 ft | 197 kts | 264° |
| 2026-05-07 22:12 | 51.60845 | -0.50474 | 5972 ft | 197 kts | 264° |
| 2026-05-07 22:12 | 51.60713 | -0.52668 | 5974 ft | 197 kts | 264° |
| 2026-05-07 22:12 | 51.60580 | -0.54860 | 5976 ft | 197 kts | 264° |
| 2026-05-07 22:13 | 51.60449 | -0.57027 | 5969 ft | 197 kts | 264° |
| 2026-05-07 22:13 | 51.60316 | -0.59209 | 5940 ft | 193 kts | 264° |
| 2026-05-07 22:13 | 51.60186 | -0.61354 | 5567 ft | 193 kts | 263° |
| 2026-05-07 22:13 | 51.60054 | -0.63524 | 5202 ft | 195 kts | 263° |
| 2026-05-07 22:14 | 51.59921 | -0.65702 | 4853 ft | 196 kts | 263° |
| 2026-05-07 22:14 | 51.59787 | -0.67882 | 4496 ft | 195 kts | 263° |
| 2026-05-07 22:14 | 51.59653 | -0.70048 | 4180 ft | 193 kts | 263° |
| 2026-05-07 22:14 | 51.59563 | -0.71504 | 3960 ft | 192 kts | 263° |
| 2026-05-07 22:15 | 51.59433 | -0.73609 | 3646 ft | 191 kts | 262° |
| 2026-05-07 22:15 | 51.59290 | -0.75722 | 3316 ft | 189 kts | 256° |
| 2026-05-07 22:15 | 51.58715 | -0.77549 | 3008 ft | 181 kts | 225° |
| 2026-05-07 22:15 | 51.57802 | -0.78954 | 2990 ft | 182 kts | 220° |
| 2026-05-07 22:16 | 51.56705 | -0.79876 | 2970 ft | 180 kts | 187° |
| 2026-05-07 22:16 | 51.55445 | -0.79906 | 2992 ft | 181 kts | 175° |
| 2026-05-07 22:16 | 51.54196 | -0.79751 | 2928 ft | 177 kts | 174° |
| 2026-05-07 22:16 | 51.52969 | -0.79600 | 2585 ft | 178 kts | 175° |
| 2026-05-07 22:17 | 51.51736 | -0.79476 | 2500 ft | 178 kts | 176° |
| 2026-05-07 22:17 | 51.50493 | -0.79373 | 2496 ft | 179 kts | 175° |
| 2026-05-07 22:17 | 51.49333 | -0.78751 | 2474 ft | 178 kts | 142° |
| 2026-05-07 22:17 | 51.48437 | -0.77380 | 2504 ft | 178 kts | 134° |
| 2026-05-07 22:18 | 51.47834 | -0.75666 | 2493 ft | 179 kts | 107° |
| 2026-05-07 22:18 | 51.47640 | -0.71782 | 2462 ft | 162 kts | 90° |
| 2026-05-07 22:18 | 51.47679 | -0.69984 | 2476 ft | 160 kts | 90° |
| 2026-05-07 22:19 | 51.47706 | -0.68221 | 2482 ft | 160 kts | 91° |
| 2026-05-07 22:19 | 51.47715 | -0.66406 | 2357 ft | 160 kts | 92° |
| 2026-05-07 22:19 | 51.47717 | -0.64647 | 2140 ft | 159 kts | 92° |
| 2026-05-07 22:19 | 51.47718 | -0.62865 | 1920 ft | 159 kts | 92° |
| 2026-05-07 22:20 | 51.47720 | -0.61080 | 1705 ft | 160 kts | 92° |
| 2026-05-07 22:20 | 51.47723 | -0.59302 | 1484 ft | 159 kts | 92° |
| 2026-05-07 22:20 | 51.47726 | -0.57526 | 1264 ft | 159 kts | 92° |
| 2026-05-07 22:20 | 51.47730 | -0.55746 | 1037 ft | 159 kts | 92° |
| 2026-05-07 22:21 | 51.47735 | -0.53976 | 811 ft | 158 kts | 92° |
| 2026-05-07 22:21 | 51.47739 | -0.52215 | 596 ft | 157 kts | 91° |
| 2026-05-07 22:21 | 51.47742 | -0.50467 | 382 ft | 156 kts | 91° |
| 2026-05-07 22:21 | 51.47746 | -0.48749 | 178 ft | 155 kts | 91° |
| 2026-05-07 22:22 | 51.47747 | -0.47126 | 99 ft | 123 kts | 89° |
| 2026-05-07 22:22 | 51.47758 | -0.46058 | 100 ft | 73 kts | 90° |
| 2026-05-07 22:22 | 51.47756 | -0.45586 | 98 ft | 29 kts | 100° |
| 2026-05-07 22:22 | 51.47617 | -0.45468 | 97 ft | 22 kts | 177° |
| 2026-05-07 22:23 | 51.47589 | -0.45466 | 97 ft | 0 kts | 177° |
| 2026-05-07 22:23 | 51.47587 | -0.45466 | 97 ft | 1 kts | 178° |
| 2026-05-07 22:23 | 51.47568 | -0.45468 | 98 ft | 7 kts | 191° |
| 2026-05-07 22:23 | 51.47520 | -0.45542 | 102 ft | 11 kts | 252° |
| 2026-05-07 22:24 | 51.47514 | -0.45680 | 100 ft | 14 kts | 269° |
| 2026-05-07 22:24 | 51.47514 | -0.45858 | 100 ft | 18 kts | 270° |
| 2026-05-07 22:24 | 51.47514 | -0.46072 | 100 ft | 19 kts | 270° |
| 2026-05-07 22:24 | 51.47514 | -0.46307 | 98 ft | 23 kts | 270° |
| 2026-05-07 22:25 | 51.47515 | -0.46562 | 101 ft | 20 kts | 270° |
| 2026-05-07 22:25 | 51.47496 | -0.46799 | 99 ft | 23 kts | 262° |
| 2026-05-07 22:25 | 51.47491 | -0.47062 | 100 ft | 24 kts | 269° |
| 2026-05-07 22:25 | 51.47468 | -0.47323 | 100 ft | 23 kts | 226° |
| 2026-05-07 22:26 | 51.47323 | -0.47352 | 99 ft | 22 kts | 181° |
| 2026-05-07 22:26 | 51.47156 | -0.47356 | 99 ft | 26 kts | 181° |
| 2026-05-07 22:26 | 51.47059 | -0.47416 | 98 ft | 10 kts | 264° |
| 2026-05-07 22:26 | 51.47057 | -0.47485 | 100 ft | 0 kts | 268° |